Strona główna
METAR-TAF:

METAR-TAF

Lotnisko :

Belgrad, Serbia

Port lotniczy Belgrad

Szerokość geograficzna: 44-49N, Długość geograficzna: 020-17E, wysokość: 96 m

Aktualna obserwacja pogody

Raport powstał 19 minut temu, godzina 03:30 UTC
Wiatr 15 kt od zachód
Temperatura 1°C
Wilgotność 80%
Ciśnienie 1010 hPa
Widzialność 10 km lub więcej
Brak chmur poniżej 1500 m i brak chmur cumulonimbus

METAR: LYBE 180330Z 28015KT CAVOK 01/M02 Q1010 NOSIG

czas: 04:49 (03:49 UTC)

Prognoza

Raport powstał 4 godziny i 49 minut temu, godzina 23:00 UTC
Prognoza ważna od 18 godzina 00 UTC do 18 godzina 24 UTC
Wiatr 15 kt od północny zachód
Widzialność 10 km lub więcej
Brak chmur poniżej 1500 m i brak chmur cumulonimbus
Stopniowe zmiany
od 18 godzina 14 UTC do 18 godzina 16 UTC
Wiatr 8 kt od zachodnio-południowy zachód

TAF: LYBE 172300Z 1800/1824 31015KT CAVOK TX05/1812Z TNM00/1806Z BECMG 1814/1816 24008KT

Obserwacja i prognoza pogody dla ponad 4000 lotnisk (raport METAR i TAF).

Dostępne stacje oznaczono żółtymi i czerwonymi punktami na mapie.

Najedź kursorem aby zobaczyć nazwę stacji.

Kliknij aby zobaczyć obserwacje i prognozy pogody.

Aby zmienić mapę: kliknij na zielony przycisk z czarnym krzyżykiem, aby powiększyć; na zielony przycisk z myślnikiem, aby pomniejszyć; na zielone strzałki, aby przejść do map sąsiednich.


METAR-TAF: